createdAt,value
2022-09-21T00:01:13.748Z,98798.34
2022-09-21T00:03:43.420Z,98798.22
2022-09-21T00:06:20.640Z,98798.22
2022-09-21T00:08:48.071Z,98802.78
2022-09-21T00:11:17.532Z,98801.13
2022-09-21T00:13:45.898Z,98794.72
2022-09-21T00:16:13.069Z,98793.84
2022-09-21T00:18:39.768Z,98790.38
2022-09-21T00:21:08.831Z,98788.81
2022-09-21T00:23:36.126Z,98793.03
2022-09-21T00:26:10.380Z,98792.16
2022-09-21T00:28:37.031Z,98790.59
2022-09-21T00:31:05.121Z,98795.06
2022-09-21T00:33:32.222Z,98799.28
2022-09-21T00:36:04.530Z,98792.16
2022-09-21T00:38:31.128Z,98801.22
2022-09-21T00:40:58.169Z,98803.16
2022-09-21T00:43:24.789Z,98805.56
2022-09-21T00:46:06.640Z,98780.00
2022-09-21T00:48:33.817Z,98808.34
2022-09-21T00:51:06.341Z,98808.47
2022-09-21T00:53:33.885Z,98802.91
2022-09-21T00:56:02.856Z,98736.66
2022-09-21T00:58:46.451Z,98799.66
2022-09-21T01:01:16.208Z,98802.31
2022-09-21T01:03:45.655Z,98808.34
2022-09-21T01:06:17.504Z,98802.22
2022-09-21T01:08:47.000Z,98810.25
2022-09-21T01:11:29.504Z,98809.56
2022-09-21T01:14:24.285Z,98814.59
2022-09-21T01:17:03.995Z,98813.78
2022-09-21T01:19:39.819Z,98811.34
2022-09-21T01:22:20.272Z,98818.47
2022-09-21T01:25:13.400Z,98821.84
2022-09-21T01:27:53.924Z,98816.66
2022-09-21T01:30:22.791Z,98806.84
2022-09-21T01:32:57.779Z,98760.28
2022-09-21T01:35:39.835Z,98822.81
2022-09-21T01:38:17.909Z,98821.13
2022-09-21T01:40:50.987Z,98819.56
2022-09-21T01:43:26.234Z,98821.97
2022-09-21T01:45:57.300Z,98820.19
2022-09-21T01:48:25.622Z,98829.09
2022-09-21T01:50:56.323Z,98811.00
2022-09-21T01:53:32.207Z,98821.13
2022-09-21T01:56:05.731Z,98824.63
2022-09-21T01:58:42.019Z,98823.91
2022-09-21T02:01:12.815Z,98819.66
2022-09-21T02:03:43.471Z,98828.22
2022-09-21T02:06:11.975Z,98832.69
2022-09-21T02:08:39.174Z,98828.34
2022-09-21T02:11:07.835Z,98824.97
2022-09-21T02:13:39.281Z,98823.06
2022-09-21T02:16:09.034Z,98821.25
2022-09-21T02:19:11.222Z,98823.19
2022-09-21T02:22:00.020Z,98828.59
2022-09-21T02:24:29.689Z,98827.53
2022-09-21T02:27:16.471Z,98832.81
2022-09-21T02:30:01.781Z,98830.41
2022-09-21T02:33:01.149Z,98823.41
2022-09-21T02:35:52.032Z,98828.59
2022-09-21T02:38:37.123Z,98829.56
2022-09-21T02:41:09.652Z,98831.59
2022-09-21T02:43:51.701Z,98824.25
2022-09-21T02:46:42.824Z,98834.00
2022-09-21T02:49:20.826Z,98829.78
2022-09-21T02:51:51.128Z,98835.09
2022-09-21T02:54:22.967Z,98837.53
2022-09-21T02:56:51.441Z,98841.13
2022-09-21T02:59:18.403Z,98829.78
2022-09-21T03:01:45.240Z,98842.31
2022-09-21T03:04:11.891Z,98841.13
2022-09-21T03:06:38.698Z,98849.09
2022-09-21T03:09:05.404Z,98843.06
2022-09-21T03:11:32.294Z,98842.22
2022-09-21T03:13:59.638Z,98847.28
2022-09-21T03:16:26.297Z,98854.41
2022-09-21T03:18:52.844Z,98852.69
2022-09-21T03:21:19.392Z,98859.91
2022-09-21T03:23:45.891Z,98854.53
2022-09-21T03:26:12.492Z,98792.06
2022-09-21T03:28:39.408Z,98867.84
2022-09-21T03:31:06.712Z,98866.19
2022-09-21T03:33:33.312Z,98862.53
2022-09-21T03:35:59.907Z,98808.84
2022-09-21T03:38:26.851Z,98881.13
2022-09-21T03:40:57.824Z,98883.06
2022-09-21T03:43:25.167Z,98880.19
2022-09-21T03:45:52.096Z,98874.88
2022-09-21T03:48:18.887Z,98882.94
2022-09-21T03:50:45.530Z,98855.78
2022-09-21T03:53:12.200Z,98813.53
2022-09-21T03:55:38.763Z,98881.06
2022-09-21T03:58:05.849Z,98874.72
2022-09-21T04:00:33.036Z,98872.53
2022-09-21T04:02:59.928Z,98903.25
2022-09-21T04:05:27.676Z,98899.63
2022-09-21T04:07:55.338Z,98900.69
2022-09-21T04:10:27.034Z,98898.97
2022-09-21T04:12:57.799Z,98900.69
2022-09-21T04:15:24.422Z,98903.25
2022-09-21T04:17:52.372Z,98908.63
2022-09-21T04:20:20.084Z,98884.00
2022-09-21T04:22:47.464Z,98887.72
2022-09-21T04:25:15.359Z,98911.28
2022-09-21T04:27:41.943Z,98916.59
2022-09-21T04:30:11.623Z,98906.19
2022-09-21T04:32:38.155Z,98904.38
2022-09-21T04:35:05.238Z,98901.50
2022-09-21T04:37:31.752Z,98906.94
2022-09-21T04:39:58.567Z,98911.38
2022-09-21T04:42:25.128Z,98920.28
2022-09-21T04:44:51.680Z,98913.94
2022-09-21T04:47:19.339Z,98905.38
2022-09-21T04:49:45.895Z,98904.28
2022-09-21T04:52:15.853Z,98909.69
2022-09-21T04:54:46.084Z,98906.81
2022-09-21T04:57:13.151Z,98909.59
2022-09-21T04:59:39.700Z,98902.72
2022-09-21T05:02:06.532Z,98901.84
2022-09-21T05:04:33.227Z,98912.25
2022-09-21T05:06:59.794Z,98915.00
2022-09-21T05:09:44.987Z,98916.94
2022-09-21T05:12:11.508Z,98915.38
2022-09-21T05:14:37.991Z,98921.28
2022-09-21T05:17:04.624Z,98924.91
2022-09-21T05:19:31.115Z,98929.47
2022-09-21T05:21:57.684Z,98925.09
2022-09-21T05:24:24.920Z,98930.19
2022-09-21T05:26:51.509Z,98923.19
2022-09-21T05:29:18.404Z,98917.63
2022-09-21T05:32:03.271Z,98929.78
2022-09-21T05:35:06.108Z,98935.72
2022-09-21T05:37:38.649Z,98930.66
2022-09-21T05:40:06.742Z,98937.03
2022-09-21T05:42:33.647Z,98948.59
2022-09-21T05:45:00.786Z,98939.44
2022-09-21T05:47:44.447Z,98940.53
2022-09-21T05:50:29.628Z,98943.31
2022-09-21T05:53:14.504Z,98938.81
2022-09-21T05:55:57.911Z,98944.00
2022-09-21T05:58:27.133Z,98940.53
2022-09-21T06:01:15.455Z,98937.13
2022-09-21T06:03:42.776Z,98943.19
2022-09-21T06:06:09.996Z,98954.63
2022-09-21T06:08:39.739Z,98951.13
2022-09-21T06:11:06.235Z,98954.75
2022-09-21T06:13:32.901Z,98953.56
2022-09-21T06:16:03.356Z,98934.09
2022-09-21T06:18:30.061Z,98957.06
2022-09-21T06:20:56.555Z,98958.13
2022-09-21T06:23:23.388Z,98962.25
2022-09-21T06:25:56.070Z,98961.28
2022-09-21T06:28:25.234Z,98944.63
2022-09-21T06:30:53.175Z,98956.94
2022-09-21T06:33:23.368Z,98940.53
2022-09-21T06:35:55.185Z,98951.28
2022-09-21T06:38:22.073Z,98954.91
2022-09-21T06:40:49.812Z,98962.84
2022-09-21T06:43:16.567Z,98962.66
2022-09-21T06:45:43.507Z,98959.88
2022-09-21T06:48:10.223Z,98958.63
2022-09-21T06:50:36.807Z,98939.69
2022-09-21T06:53:03.774Z,98968.78
2022-09-21T06:55:31.529Z,98981.00
2022-09-21T06:58:02.914Z,98981.09
2022-09-21T07:00:30.843Z,98995.31
2022-09-21T07:02:57.760Z,98993.31
2022-09-21T07:05:24.710Z,98990.53
2022-09-21T07:07:59.185Z,98988.75
2022-09-21T07:10:26.218Z,98981.63
2022-09-21T07:12:52.879Z,98975.16
2022-09-21T07:15:21.325Z,98975.03
2022-09-21T07:17:52.539Z,98977.69
2022-09-21T07:20:19.304Z,98977.06
2022-09-21T07:22:45.775Z,98974.91
2022-09-21T07:25:12.473Z,98991.44
2022-09-21T07:27:39.140Z,98984.31
2022-09-21T07:30:07.094Z,98986.97
2022-09-21T07:32:33.746Z,98990.34
2022-09-21T07:35:00.785Z,98969.72
2022-09-21T07:37:29.776Z,98987.59
2022-09-21T07:39:56.457Z,98990.97
2022-09-21T07:42:24.077Z,98999.69
2022-09-21T07:44:51.290Z,99000.16
2022-09-21T07:47:18.629Z,98998.47
2022-09-21T07:49:49.109Z,99001.97
2022-09-21T07:52:15.880Z,98998.34
2022-09-21T07:54:42.493Z,99009.47
2022-09-21T07:57:27.754Z,99010.31
2022-09-21T07:59:57.147Z,99006.81
2022-09-21T08:02:27.110Z,99010.06
2022-09-21T08:04:54.088Z,99015.16
2022-09-21T08:07:20.692Z,98997.28
2022-09-21T08:09:49.375Z,99016.88
2022-09-21T08:12:18.599Z,99016.75
2022-09-21T08:14:45.603Z,99018.09
2022-09-21T08:17:12.376Z,99016.88
2022-09-21T08:19:39.122Z,99002.63
2022-09-21T08:22:06.427Z,99025.59
2022-09-21T08:24:33.494Z,99021.47
2022-09-21T08:27:00.132Z,99005.66
2022-09-21T08:29:26.947Z,99022.47
2022-09-21T08:31:53.708Z,99002.88
2022-09-21T08:34:20.348Z,99028.41
2022-09-21T08:36:47.601Z,99026.56
2022-09-21T08:39:15.408Z,99031.06
2022-09-21T08:42:03.100Z,99031.06
2022-09-21T08:44:39.580Z,99023.31
2022-09-21T08:47:45.204Z,99029.97
2022-09-21T08:50:22.254Z,99026.44
2022-09-21T08:52:52.114Z,99027.19
2022-09-21T08:55:20.777Z,99027.94
2022-09-21T08:57:47.492Z,99013.91
2022-09-21T09:00:16.737Z,99026.50
2022-09-21T09:02:49.120Z,99028.94
2022-09-21T09:05:33.773Z,99032.41
2022-09-21T09:08:03.110Z,99033.50
2022-09-21T09:10:43.800Z,99030.97
2022-09-21T09:13:19.251Z,99031.81
2022-09-21T09:15:52.249Z,99031.81
2022-09-21T09:18:25.512Z,99033.75
2022-09-21T09:21:03.757Z,99036.63
2022-09-21T09:23:49.807Z,99025.91
2022-09-21T09:26:25.436Z,99021.25
2022-09-21T09:28:58.748Z,99041.13
2022-09-21T09:31:29.623Z,99034.09
2022-09-21T09:34:07.906Z,99033.97
2022-09-21T09:36:57.285Z,99033.16
2022-09-21T09:39:23.974Z,99028.78
2022-09-21T09:42:02.727Z,99031.53
2022-09-21T09:44:34.841Z,99033.25
2022-09-21T09:47:29.714Z,99029.00
2022-09-21T09:50:25.002Z,99038.75
2022-09-21T09:52:57.803Z,99042.28
2022-09-21T09:55:39.920Z,99033.47
2022-09-21T09:58:22.595Z,99011.31
2022-09-21T10:00:53.312Z,99033.59
2022-09-21T10:03:23.331Z,99031.75
2022-09-21T10:05:50.802Z,99035.28
2022-09-21T10:08:36.864Z,99035.38
2022-09-21T10:11:04.147Z,99032.97
2022-09-21T10:13:33.760Z,99032.72
2022-09-21T10:16:11.283Z,99037.94
2022-09-21T10:18:39.753Z,99041.53
2022-09-21T10:21:09.183Z,99039.84
2022-09-21T10:23:38.428Z,99017.72
2022-09-21T10:26:07.647Z,99029.22
2022-09-21T10:28:35.331Z,99017.72
2022-09-21T10:31:31.221Z,99037.31
2022-09-21T10:34:03.934Z,99039.03
2022-09-21T10:36:37.647Z,99035.38
2022-09-21T10:39:18.708Z,99039.13
2022-09-21T10:41:50.589Z,99031.28
2022-09-21T10:44:20.179Z,99029.34
2022-09-21T10:46:50.233Z,99022.06
2022-09-21T10:49:28.885Z,99039.25
2022-09-21T10:51:59.126Z,99038.41
2022-09-21T10:54:33.769Z,99032.84
2022-09-21T10:57:04.219Z,99030.31
2022-09-21T10:59:37.249Z,99013.50
2022-09-21T11:02:32.984Z,99028.63
2022-09-21T11:05:16.350Z,99022.69
2022-09-21T11:07:52.319Z,99030.31
2022-09-21T11:10:46.387Z,99032.22
2022-09-21T11:13:54.346Z,99033.81
2022-09-21T11:16:30.179Z,99032.84
2022-09-21T11:19:05.941Z,99025.97
2022-09-21T11:21:38.455Z,99026.09
2022-09-21T11:24:24.966Z,99023.31
2022-09-21T11:27:04.257Z,99017.16
2022-09-21T11:29:53.840Z,99022.47
2022-09-21T11:32:55.120Z,99023.44
2022-09-21T11:35:58.648Z,99025.13
2022-09-21T11:38:43.769Z,99016.53
2022-09-21T11:41:15.613Z,99021.94
2022-09-21T11:44:16.358Z,99021.59
2022-09-21T11:46:43.880Z,99015.47
2022-09-21T11:49:41.922Z,99001.44
2022-09-21T11:52:26.715Z,99007.72
2022-09-21T11:55:08.155Z,99002.19
2022-09-21T11:57:54.205Z,99000.00
2022-09-21T12:00:23.471Z,98927.16
2022-09-21T12:03:13.116Z,99006.06
2022-09-21T12:05:56.051Z,99006.16
2022-09-21T12:08:44.448Z,98999.41
2022-09-21T12:11:34.959Z,98979.13
2022-09-21T12:14:23.784Z,98993.19
2022-09-21T12:17:18.381Z,98996.69
2022-09-21T12:19:54.387Z,98986.69
2022-09-21T12:22:29.310Z,98982.81
2022-09-21T12:25:02.618Z,98986.81
2022-09-21T12:27:41.511Z,98973.63
2022-09-21T12:30:29.230Z,98982.78
2022-09-21T12:33:16.232Z,98975.28
2022-09-21T12:35:47.846Z,98980.59
2022-09-21T12:38:23.518Z,98983.34
2022-09-21T12:40:59.755Z,98978.28
2022-09-21T12:43:41.470Z,98974.06
2022-09-21T12:46:15.110Z,98977.81
2022-09-21T12:48:45.854Z,98978.75
2022-09-21T12:51:28.321Z,98980.69
2022-09-21T12:53:59.066Z,98977.28
2022-09-21T12:56:45.067Z,98973.91
2022-09-21T12:59:24.763Z,98971.25
2022-09-21T13:01:57.337Z,98970.53
2022-09-21T13:04:46.352Z,98970.53
2022-09-21T13:10:22.102Z,98970.66
2022-09-21T13:13:02.130Z,98967.13
2022-09-21T13:15:32.564Z,98969.78
2022-09-21T13:18:02.852Z,98961.81
2022-09-21T13:20:36.590Z,98954.13
2022-09-21T13:23:04.679Z,98956.63
2022-09-21T13:25:38.163Z,98967.25
2022-09-21T13:28:19.804Z,98961.13
2022-09-21T13:31:09.950Z,98961.13
2022-09-21T13:34:19.463Z,98954.94
2022-09-21T13:37:11.746Z,98945.28
2022-09-21T13:39:44.503Z,98954.13
2022-09-21T13:42:29.841Z,98950.59
2022-09-21T13:45:19.367Z,98947.09
2022-09-21T13:47:53.203Z,98942.75
2022-09-21T13:50:43.478Z,98937.44
2022-09-21T13:53:29.919Z,98947.94
2022-09-21T13:56:24.830Z,98933.97
2022-09-21T13:58:57.698Z,98935.66
2022-09-21T14:01:46.674Z,98934.78
2022-09-21T14:04:25.716Z,98935.66
2022-09-21T14:06:54.815Z,98940.84
2022-09-21T14:09:31.588Z,98938.31
2022-09-21T14:12:02.573Z,98942.63
2022-09-21T14:14:41.475Z,98952.41
2022-09-21T14:17:34.435Z,98957.72
2022-09-21T14:20:01.241Z,98953.38
2022-09-21T14:22:28.057Z,98948.06
2022-09-21T14:25:27.021Z,98950.72
2022-09-21T14:27:59.629Z,98947.22
2022-09-21T14:30:32.081Z,98947.34
2022-09-21T14:33:02.280Z,98949.03
2022-09-21T14:35:56.556Z,98952.66
2022-09-21T14:38:30.387Z,98950.00
2022-09-21T14:41:07.530Z,98944.69
2022-09-21T14:43:37.375Z,98954.34
2022-09-21T14:46:38.439Z,98943.84
2022-09-21T14:49:26.944Z,98950.84
2022-09-21T14:52:13.341Z,98950.84
2022-09-21T14:54:59.062Z,98943.00
2022-09-21T14:57:55.985Z,98952.66
2022-09-21T15:00:26.571Z,98942.16
2022-09-21T15:03:39.014Z,98942.88
2022-09-21T15:06:32.808Z,98942.88
2022-09-21T15:09:17.923Z,98941.06
2022-09-21T15:11:50.915Z,98946.38
2022-09-21T15:14:59.778Z,98948.19
2022-09-21T15:17:29.921Z,98950.00
2022-09-21T15:20:13.038Z,98948.19
2022-09-21T15:22:43.320Z,98949.16
2022-09-21T15:25:13.819Z,98952.75
2022-09-21T15:27:46.651Z,98954.47
2022-09-21T15:30:22.317Z,98942.59
2022-09-21T15:32:55.707Z,98951.31
2022-09-21T15:35:29.157Z,98947.69
2022-09-21T15:37:57.184Z,98956.28
2022-09-21T15:40:50.165Z,98953.63
2022-09-21T15:43:38.737Z,98958.81
2022-09-21T15:46:07.701Z,98964.94
2022-09-21T15:48:38.234Z,98968.47
2022-09-21T15:51:24.661Z,98969.31
2022-09-21T15:53:55.780Z,98970.16
2022-09-21T15:56:25.936Z,98985.22
2022-09-21T15:59:08.709Z,98992.22
2022-09-21T16:01:50.786Z,98988.47
2022-09-21T16:04:23.375Z,99007.06
2022-09-21T16:07:24.839Z,99003.28
2022-09-21T16:09:51.820Z,99010.97
2022-09-21T16:12:41.746Z,99010.59
2022-09-21T16:15:38.908Z,99010.94
2022-09-21T16:18:06.937Z,99013.75
2022-09-21T16:20:47.419Z,99014.00
2022-09-21T16:23:17.355Z,99023.88
2022-09-21T16:25:44.980Z,99013.50
2022-09-21T16:28:15.417Z,99012.63
2022-09-21T16:30:51.096Z,99019.88
2022-09-21T16:33:41.291Z,99018.19
2022-09-21T16:36:18.178Z,99021.91
2022-09-21T16:38:47.038Z,99021.06
2022-09-21T16:41:14.528Z,99030.81
2022-09-21T16:43:43.596Z,99032.63
2022-09-21T16:46:11.046Z,99033.59
2022-09-21T16:48:39.997Z,99028.38
2022-09-21T16:51:12.834Z,99031.03
2022-09-21T16:53:39.395Z,99026.81
2022-09-21T16:56:06.991Z,99024.59
2022-09-21T16:58:34.922Z,99027.75
2022-09-21T17:01:04.296Z,99030.41
2022-09-21T17:03:34.730Z,99032.34
2022-09-21T17:06:02.505Z,99036.78
2022-09-21T17:08:30.253Z,99035.97
2022-09-21T17:10:58.492Z,99003.16
2022-09-21T17:13:25.059Z,99047.50
2022-09-21T17:15:52.033Z,99047.63
2022-09-21T17:18:18.570Z,99055.59
2022-09-21T17:20:45.768Z,99056.53
2022-09-21T17:23:12.572Z,99061.00
2022-09-21T17:25:39.242Z,99055.81
2022-09-21T17:28:26.212Z,99067.28
2022-09-21T17:30:54.136Z,99066.41
2022-09-21T17:33:21.443Z,99068.22
2022-09-21T17:35:51.034Z,99069.19
2022-09-21T17:38:18.143Z,99067.34
2022-09-21T17:40:45.375Z,99062.16
2022-09-21T17:43:39.435Z,99074.59
2022-09-21T17:46:20.942Z,99073.72
2022-09-21T17:48:47.936Z,99084.34
2022-09-21T17:51:34.774Z,99079.97
2022-09-21T17:54:01.783Z,99078.19
2022-09-21T17:56:46.316Z,99092.41
2022-09-21T17:59:26.179Z,99085.41
2022-09-21T18:01:53.062Z,99089.75
2022-09-21T18:04:20.116Z,99075.03
2022-09-21T18:06:47.896Z,99082.63
2022-09-21T18:09:14.757Z,99079.47
2022-09-21T18:12:01.854Z,99087.09
2022-09-21T18:14:40.366Z,99081.81
2022-09-21T18:17:44.884Z,99084.44
2022-09-21T18:20:39.401Z,99083.63
2022-09-21T18:23:22.364Z,99082.75
2022-09-21T18:25:57.290Z,99086.03
2022-09-21T18:28:39.550Z,99090.50
2022-09-21T18:31:19.791Z,99097.50
2022-09-21T18:33:59.821Z,99095.69
2022-09-21T18:36:37.139Z,99093.88
2022-09-21T18:39:09.493Z,99095.56
2022-09-21T18:42:10.913Z,99101.81
2022-09-21T18:44:48.612Z,99088.69
2022-09-21T18:47:23.036Z,99094.84
2022-09-21T18:50:07.953Z,99090.38
2022-09-21T18:52:53.145Z,99094.00
2022-09-21T18:55:28.704Z,99101.13
2022-09-21T18:57:59.743Z,99078.63
2022-09-21T19:00:34.740Z,99088.69
2022-09-21T19:03:17.698Z,99087.00
2022-09-21T19:06:10.181Z,99085.19
2022-09-21T19:08:54.918Z,99083.50
2022-09-21T19:11:54.876Z,99081.81
2022-09-21T19:14:40.293Z,99084.34
2022-09-21T19:17:27.962Z,99080.97
2022-09-21T19:20:03.735Z,99081.91
2022-09-21T19:22:33.181Z,99083.63
2022-09-21T19:25:05.010Z,99074.81
2022-09-21T19:27:46.990Z,99059.44
2022-09-21T19:30:15.406Z,99074.69
2022-09-21T19:32:50.104Z,99078.94
2022-09-21T19:35:18.930Z,99069.19
2022-09-21T19:37:47.170Z,99067.34
2022-09-21T19:40:18.587Z,99063.75
2022-09-21T19:43:06.227Z,99068.22
2022-09-21T19:45:51.929Z,99066.41
2022-09-21T19:48:31.705Z,99064.69
2022-09-21T19:51:00.193Z,99072.66
2022-09-21T19:53:45.552Z,99070.00
2022-09-21T19:56:34.497Z,99063.03
2022-09-21T19:59:20.611Z,99068.22
2022-09-21T20:01:53.820Z,99069.06
2022-09-21T20:04:42.488Z,99068.97
2022-09-21T20:07:44.151Z,99059.41
2022-09-21T20:10:49.998Z,99072.13
2022-09-21T20:13:38.137Z,99066.72
2022-09-21T20:16:19.261Z,99070.09
2022-09-21T20:19:07.589Z,99063.72
2022-09-21T20:21:40.177Z,99068.06
2022-09-21T20:24:37.445Z,99066.13
2022-09-21T20:27:34.491Z,99068.66
2022-09-21T20:30:06.989Z,99067.84
2022-09-21T20:32:36.366Z,99063.28
2022-09-21T20:35:03.612Z,99066.78
2022-09-21T20:37:39.596Z,99068.47
2022-09-21T20:40:06.836Z,99062.22
2022-09-21T20:42:38.167Z,99068.34
2022-09-21T20:45:07.259Z,99066.56
2022-09-21T20:47:34.612Z,99076.22
2022-09-21T20:50:01.206Z,99076.09
2022-09-21T20:52:27.756Z,99072.50
2022-09-21T20:54:54.303Z,99061.88
2022-09-21T20:57:21.453Z,99033.31
2022-09-21T20:59:48.152Z,99067.91
2022-09-21T21:02:19.412Z,99063.03
2022-09-21T21:04:45.941Z,99071.41
2022-09-21T21:07:13.191Z,99071.50
2022-09-21T21:09:39.730Z,99066.19
2022-09-21T21:12:06.382Z,99058.59
2022-09-21T21:14:33.000Z,99060.50
2022-09-21T21:16:59.614Z,99062.41
2022-09-21T21:19:26.401Z,99059.13
2022-09-21T21:21:52.942Z,99058.94
2022-09-21T21:24:37.843Z,99050.97
2022-09-21T21:27:04.991Z,99053.63
2022-09-21T21:29:32.005Z,99021.56
2022-09-21T21:31:59.649Z,99052.75
2022-09-21T21:34:26.681Z,99056.41
2022-09-21T21:36:55.248Z,99053.00
2022-09-21T21:39:21.727Z,99049.50
2022-09-21T21:41:48.782Z,99054.06
2022-09-21T21:44:15.780Z,99055.03
2022-09-21T21:46:43.229Z,99052.50
2022-09-21T21:49:10.033Z,99055.16
2022-09-21T21:51:36.601Z,99055.16
2022-09-21T21:54:03.269Z,99044.66
2022-09-21T21:56:29.943Z,99039.69
2022-09-21T21:58:56.811Z,99045.63
2022-09-21T22:01:26.650Z,99032.06
2022-09-21T22:03:55.899Z,99043.91
2022-09-21T22:06:23.488Z,99039.56
2022-09-21T22:08:51.030Z,99037.75
2022-09-21T22:11:19.224Z,99032.56
2022-09-21T22:13:46.536Z,99022.81
2022-09-21T22:16:34.259Z,99025.56
2022-09-21T22:19:03.604Z,99032.69
2022-09-21T22:21:38.876Z,99029.19
2022-09-21T22:24:06.438Z,99026.53
2022-09-21T22:26:40.458Z,99024.84
2022-09-21T22:29:09.481Z,99023.03
2022-09-21T22:31:39.512Z,99023.97
2022-09-21T22:34:06.559Z,99032.81
2022-09-21T22:36:34.647Z,99023.97
2022-09-21T22:39:01.611Z,99023.16
2022-09-21T22:41:30.547Z,99020.50
2022-09-21T22:43:58.784Z,99023.16
2022-09-21T22:46:27.238Z,99028.44
2022-09-21T22:48:54.140Z,99013.50
2022-09-21T22:51:21.455Z,99011.66
2022-09-21T22:53:49.491Z,99023.16
2022-09-21T22:56:21.451Z,99018.78
2022-09-21T22:58:50.960Z,99019.63
2022-09-21T23:01:25.477Z,99020.50
2022-09-21T23:03:58.108Z,99017.97
2022-09-21T23:06:45.000Z,99017.09
2022-09-21T23:09:18.414Z,99014.44
2022-09-21T23:11:53.565Z,99004.91
2022-09-21T23:14:21.995Z,99006.72
2022-09-21T23:16:51.604Z,99003.22
2022-09-21T23:19:18.335Z,99012.75
2022-09-21T23:24:13.410Z,99006.72
2022-09-21T23:26:40.163Z,99010.22
2022-09-21T23:29:11.948Z,99021.66
2022-09-21T23:31:43.794Z,99016.47
2022-09-21T23:34:14.638Z,99009.91
2022-09-21T23:36:42.397Z,99015.63
2022-09-21T23:39:11.683Z,99014.78
2022-09-21T23:41:38.300Z,99005.03
2022-09-21T23:44:06.092Z,99003.53
2022-09-21T23:46:36.079Z,99001.75
2022-09-21T23:49:02.889Z,99004.41
2022-09-21T23:51:32.195Z,99004.63
2022-09-21T23:53:59.560Z,99013.31
2022-09-21T23:56:28.894Z,99010.66
2022-09-21T23:58:56.952Z,99001.88
